sensor_id;sensor_type;location;lat;lon;timestamp;P1;durP1;ratioP1;P2;durP2;ratioP2
44987;SDS011;35735;52.226;21.254;2022-07-12T00:04:28;4.10;;;1.30;;
44987;SDS011;35735;52.226;21.254;2022-07-12T00:09:29;2.42;;;1.50;;
44987;SDS011;35735;52.226;21.254;2022-07-12T00:14:29;2.12;;;1.50;;
44987;SDS011;35735;52.226;21.254;2022-07-12T00:19:30;4.12;;;1.45;;
44987;SDS011;35735;52.226;21.254;2022-07-12T00:24:31;2.78;;;1.40;;
44987;SDS011;35735;52.226;21.254;2022-07-12T00:29:31;3.33;;;1.35;;
44987;SDS011;35735;52.226;21.254;2022-07-12T00:34:35;1.87;;;1.25;;
44987;SDS011;35735;52.226;21.254;2022-07-12T00:39:35;4.10;;;1.67;;
44987;SDS011;35735;52.226;21.254;2022-07-12T00:44:36;4.37;;;1.60;;
44987;SDS011;35735;52.226;21.254;2022-07-12T00:49:36;3.75;;;1.62;;
44987;SDS011;35735;52.226;21.254;2022-07-12T00:54:37;2.40;;;1.35;;
44987;SDS011;35735;52.226;21.254;2022-07-12T00:59:37;3.87;;;1.50;;
44987;SDS011;35735;52.226;21.254;2022-07-12T01:04:40;3.12;;;1.77;;
44987;SDS011;35735;52.226;21.254;2022-07-12T01:09:43;4.47;;;1.90;;
44987;SDS011;35735;52.226;21.254;2022-07-12T01:14:44;3.15;;;1.70;;
44987;SDS011;35735;52.226;21.254;2022-07-12T01:19:45;3.25;;;1.55;;
44987;SDS011;35735;52.226;21.254;2022-07-12T01:24:47;2.60;;;1.60;;
44987;SDS011;35735;52.226;21.254;2022-07-12T01:29:48;5.35;;;1.52;;
44987;SDS011;35735;52.226;21.254;2022-07-12T01:34:49;2.58;;;1.50;;
44987;SDS011;35735;52.226;21.254;2022-07-12T01:39:53;4.45;;;1.80;;
44987;SDS011;35735;52.226;21.254;2022-07-12T01:44:56;3.55;;;1.60;;
44987;SDS011;35735;52.226;21.254;2022-07-12T01:49:57;2.53;;;1.75;;
44987;SDS011;35735;52.226;21.254;2022-07-12T01:54:59;3.50;;;1.60;;
44987;SDS011;35735;52.226;21.254;2022-07-12T02:00:00;4.53;;;1.65;;
44987;SDS011;35735;52.226;21.254;2022-07-12T02:05:04;2.40;;;1.70;;
44987;SDS011;35735;52.226;21.254;2022-07-12T02:10:06;2.97;;;1.83;;
44987;SDS011;35735;52.226;21.254;2022-07-12T02:15:08;5.62;;;1.83;;
44987;SDS011;35735;52.226;21.254;2022-07-12T02:20:09;4.25;;;2.12;;
44987;SDS011;35735;52.226;21.254;2022-07-12T02:25:10;3.92;;;2.10;;
44987;SDS011;35735;52.226;21.254;2022-07-12T02:30:10;6.50;;;2.40;;
44987;SDS011;35735;52.226;21.254;2022-07-12T02:35:11;2.62;;;2.30;;
44987;SDS011;35735;52.226;21.254;2022-07-12T02:40:12;3.70;;;2.33;;
44987;SDS011;35735;52.226;21.254;2022-07-12T02:45:13;4.55;;;2.60;;
44987;SDS011;35735;52.226;21.254;2022-07-12T02:50:14;5.10;;;2.85;;
44987;SDS011;35735;52.226;21.254;2022-07-12T02:55:14;4.75;;;2.80;;
44987;SDS011;35735;52.226;21.254;2022-07-12T03:00:15;6.78;;;2.70;;
44987;SDS011;35735;52.226;21.254;2022-07-12T03:05:16;3.00;;;2.35;;
44987;SDS011;35735;52.226;21.254;2022-07-12T03:10:16;5.25;;;2.92;;
44987;SDS011;35735;52.226;21.254;2022-07-12T03:15:17;5.55;;;3.00;;
44987;SDS011;35735;52.226;21.254;2022-07-12T03:20:17;3.40;;;2.55;;
44987;SDS011;35735;52.226;21.254;2022-07-12T03:25:18;3.10;;;2.20;;
44987;SDS011;35735;52.226;21.254;2022-07-12T03:30:20;5.53;;;2.45;;
44987;SDS011;35735;52.226;21.254;2022-07-12T03:35:21;2.78;;;2.47;;
44987;SDS011;35735;52.226;21.254;2022-07-12T03:40:22;2.42;;;2.20;;
44987;SDS011;35735;52.226;21.254;2022-07-12T03:45:22;4.80;;;2.35;;
44987;SDS011;35735;52.226;21.254;2022-07-12T03:50:23;2.97;;;2.17;;
44987;SDS011;35735;52.226;21.254;2022-07-12T03:55:23;3.50;;;2.30;;
44987;SDS011;35735;52.226;21.254;2022-07-12T04:00:24;4.07;;;2.00;;
44987;SDS011;35735;52.226;21.254;2022-07-12T04:05:24;3.25;;;2.00;;
44987;SDS011;35735;52.226;21.254;2022-07-12T04:10:25;3.00;;;2.35;;
44987;SDS011;35735;52.226;21.254;2022-07-12T04:15:25;7.85;;;2.40;;
44987;SDS011;35735;52.226;21.254;2022-07-12T04:20:26;3.08;;;2.40;;
44987;SDS011;35735;52.226;21.254;2022-07-12T04:25:27;4.18;;;2.03;;
44987;SDS011;35735;52.226;21.254;2022-07-12T04:30:27;6.35;;;2.37;;
44987;SDS011;35735;52.226;21.254;2022-07-12T04:35:28;6.20;;;2.50;;
44987;SDS011;35735;52.226;21.254;2022-07-12T04:40:31;3.00;;;1.83;;
44987;SDS011;35735;52.226;21.254;2022-07-12T04:45:32;2.72;;;1.75;;
44987;SDS011;35735;52.226;21.254;2022-07-12T04:50:32;5.20;;;2.00;;
44987;SDS011;35735;52.226;21.254;2022-07-12T04:55:33;3.03;;;1.70;;
44987;SDS011;35735;52.226;21.254;2022-07-12T05:00:33;2.20;;;1.65;;
44987;SDS011;35735;52.226;21.254;2022-07-12T05:05:34;6.60;;;2.15;;
44987;SDS011;35735;52.226;21.254;2022-07-12T05:10:34;5.60;;;1.85;;
44987;SDS011;35735;52.226;21.254;2022-07-12T05:15:35;4.65;;;2.22;;
44987;SDS011;35735;52.226;21.254;2022-07-12T05:20:36;3.92;;;1.92;;
44987;SDS011;35735;52.226;21.254;2022-07-12T05:25:36;3.15;;;1.60;;
44987;SDS011;35735;52.226;21.254;2022-07-12T05:30:37;5.35;;;1.90;;
44987;SDS011;35735;52.226;21.254;2022-07-12T05:35:37;3.72;;;2.00;;
44987;SDS011;35735;52.226;21.254;2022-07-12T05:40:38;7.35;;;2.45;;
44987;SDS011;35735;52.226;21.254;2022-07-12T05:45:40;4.03;;;2.05;;
44987;SDS011;35735;52.226;21.254;2022-07-12T05:50:41;4.57;;;1.77;;
44987;SDS011;35735;52.226;21.254;2022-07-12T05:55:42;5.00;;;2.10;;
44987;SDS011;35735;52.226;21.254;2022-07-12T06:00:42;8.43;;;2.15;;
44987;SDS011;35735;52.226;21.254;2022-07-12T06:05:43;7.43;;;2.17;;
44987;SDS011;35735;52.226;21.254;2022-07-12T06:10:43;5.03;;;2.10;;
44987;SDS011;35735;52.226;21.254;2022-07-12T06:15:44;5.18;;;2.10;;
44987;SDS011;35735;52.226;21.254;2022-07-12T06:20:44;5.68;;;2.00;;
44987;SDS011;35735;52.226;21.254;2022-07-12T06:25:45;3.60;;;1.75;;
44987;SDS011;35735;52.226;21.254;2022-07-12T06:30:46;3.83;;;1.77;;
44987;SDS011;35735;52.226;21.254;2022-07-12T06:35:46;6.10;;;2.00;;
44987;SDS011;35735;52.226;21.254;2022-07-12T06:40:47;6.00;;;1.77;;
44987;SDS011;35735;52.226;21.254;2022-07-12T06:45:47;5.35;;;1.70;;
44987;SDS011;35735;52.226;21.254;2022-07-12T06:50:48;7.55;;;1.77;;
44987;SDS011;35735;52.226;21.254;2022-07-12T06:55:48;7.95;;;1.85;;
44987;SDS011;35735;52.226;21.254;2022-07-12T07:00:49;4.05;;;1.70;;
44987;SDS011;35735;52.226;21.254;2022-07-12T07:05:49;5.43;;;1.45;;
44987;SDS011;35735;52.226;21.254;2022-07-12T07:10:51;3.25;;;1.58;;
44987;SDS011;35735;52.226;21.254;2022-07-12T07:15:52;2.97;;;1.20;;
44987;SDS011;35735;52.226;21.254;2022-07-12T07:20:52;2.95;;;1.17;;
44987;SDS011;35735;52.226;21.254;2022-07-12T07:25:53;7.22;;;1.58;;
44987;SDS011;35735;52.226;21.254;2022-07-12T07:30:53;4.35;;;1.33;;
44987;SDS011;35735;52.226;21.254;2022-07-12T07:35:55;6.03;;;1.40;;
44987;SDS011;35735;52.226;21.254;2022-07-12T07:40:55;8.57;;;1.20;;
44987;SDS011;35735;52.226;21.254;2022-07-12T07:45:56;1.48;;;1.05;;
44987;SDS011;35735;52.226;21.254;2022-07-12T07:50:57;2.17;;;1.10;;
44987;SDS011;35735;52.226;21.254;2022-07-12T07:55:58;10.13;;;1.40;;
44987;SDS011;35735;52.226;21.254;2022-07-12T08:00:59;9.32;;;1.27;;
44987;SDS011;35735;52.226;21.254;2022-07-12T08:05:59;2.62;;;1.08;;
44987;SDS011;35735;52.226;21.254;2022-07-12T08:11:00;3.65;;;1.00;;
44987;SDS011;35735;52.226;21.254;2022-07-12T08:16:00;1.27;;;0.98;;
44987;SDS011;35735;52.226;21.254;2022-07-12T08:21:01;3.08;;;1.08;;
44987;SDS011;35735;52.226;21.254;2022-07-12T08:26:01;4.62;;;1.17;;
44987;SDS011;35735;52.226;21.254;2022-07-12T08:31:02;4.30;;;1.20;;
44987;SDS011;35735;52.226;21.254;2022-07-12T08:36:03;4.18;;;1.10;;
44987;SDS011;35735;52.226;21.254;2022-07-12T08:41:04;2.78;;;1.15;;
44987;SDS011;35735;52.226;21.254;2022-07-12T08:46:05;3.03;;;0.90;;
44987;SDS011;35735;52.226;21.254;2022-07-12T08:51:11;6.10;;;1.30;;
44987;SDS011;35735;52.226;21.254;2022-07-12T08:56:29;12.63;;;1.30;;
44987;SDS011;35735;52.226;21.254;2022-07-12T09:01:40;2.67;;;1.10;;
44987;SDS011;35735;52.226;21.254;2022-07-12T09:06:44;2.83;;;1.10;;
44987;SDS011;35735;52.226;21.254;2022-07-12T09:11:46;4.97;;;1.33;;
44987;SDS011;35735;52.226;21.254;2022-07-12T09:17:03;2.67;;;1.30;;
44987;SDS011;35735;52.226;21.254;2022-07-12T09:22:15;6.07;;;1.40;;
44987;SDS011;35735;52.226;21.254;2022-07-12T09:27:16;4.20;;;1.10;;
44987;SDS011;35735;52.226;21.254;2022-07-12T09:32:24;5.47;;;1.23;;
44987;SDS011;35735;52.226;21.254;2022-07-12T09:37:27;4.32;;;1.15;;
44987;SDS011;35735;52.226;21.254;2022-07-12T09:42:39;4.78;;;1.10;;
44987;SDS011;35735;52.226;21.254;2022-07-12T09:47:41;2.53;;;1.00;;
44987;SDS011;35735;52.226;21.254;2022-07-12T09:52:44;7.32;;;1.30;;
44987;SDS011;35735;52.226;21.254;2022-07-12T09:57:48;4.00;;;1.17;;
44987;SDS011;35735;52.226;21.254;2022-07-12T10:02:51;3.35;;;1.12;;
44987;SDS011;35735;52.226;21.254;2022-07-12T10:07:53;3.50;;;1.30;;
44987;SDS011;35735;52.226;21.254;2022-07-12T10:12:53;6.70;;;1.40;;
44987;SDS011;35735;52.226;21.254;2022-07-12T10:17:54;4.93;;;1.37;;
44987;SDS011;35735;52.226;21.254;2022-07-12T10:22:56;4.87;;;1.35;;
44987;SDS011;35735;52.226;21.254;2022-07-12T10:28:16;6.95;;;1.80;;
44987;SDS011;35735;52.226;21.254;2022-07-12T10:33:17;6.57;;;1.35;;
44987;SDS011;35735;52.226;21.254;2022-07-12T10:38:19;6.10;;;1.50;;
44987;SDS011;35735;52.226;21.254;2022-07-12T10:43:21;8.68;;;1.60;;
44987;SDS011;35735;52.226;21.254;2022-07-12T10:48:24;5.82;;;1.50;;
44987;SDS011;35735;52.226;21.254;2022-07-12T10:58:36;8.40;;;1.40;;
44987;SDS011;35735;52.226;21.254;2022-07-12T11:04:08;3.05;;;1.42;;
44987;SDS011;35735;52.226;21.254;2022-07-12T11:09:10;12.50;;;1.70;;
44987;SDS011;35735;52.226;21.254;2022-07-12T11:14:13;5.82;;;1.40;;
44987;SDS011;35735;52.226;21.254;2022-07-12T11:19:29;2.78;;;0.95;;
44987;SDS011;35735;52.226;21.254;2022-07-12T11:24:31;5.85;;;1.10;;
44987;SDS011;35735;52.226;21.254;2022-07-12T11:29:33;5.12;;;1.10;;
44987;SDS011;35735;52.226;21.254;2022-07-12T11:34:34;10.10;;;1.48;;
44987;SDS011;35735;52.226;21.254;2022-07-12T11:39:35;3.20;;;1.25;;
44987;SDS011;35735;52.226;21.254;2022-07-12T11:44:53;7.37;;;1.20;;
44987;SDS011;35735;52.226;21.254;2022-07-12T11:49:54;7.85;;;1.10;;
44987;SDS011;35735;52.226;21.254;2022-07-12T11:54:55;12.57;;;1.60;;
44987;SDS011;35735;52.226;21.254;2022-07-12T11:59:55;3.97;;;0.95;;
44987;SDS011;35735;52.226;21.254;2022-07-12T12:04:56;8.15;;;1.40;;
44987;SDS011;35735;52.226;21.254;2022-07-12T12:09:59;6.65;;;1.33;;
44987;SDS011;35735;52.226;21.254;2022-07-12T12:15:06;9.43;;;1.40;;
44987;SDS011;35735;52.226;21.254;2022-07-12T12:20:20;9.25;;;1.20;;
44987;SDS011;35735;52.226;21.254;2022-07-12T12:25:25;10.77;;;1.23;;
44987;SDS011;35735;52.226;21.254;2022-07-12T12:30:29;35.25;;;2.70;;
44987;SDS011;35735;52.226;21.254;2022-07-12T12:35:33;6.25;;;0.82;;
44987;SDS011;35735;52.226;21.254;2022-07-12T12:40:36;6.65;;;1.15;;
44987;SDS011;35735;52.226;21.254;2022-07-12T12:45:50;10.38;;;1.60;;
44987;SDS011;35735;52.226;21.254;2022-07-12T12:50:54;12.80;;;1.20;;
44987;SDS011;35735;52.226;21.254;2022-07-12T12:56:06;11.75;;;1.15;;
44987;SDS011;35735;52.226;21.254;2022-07-12T13:01:10;9.88;;;1.33;;
44987;SDS011;35735;52.226;21.254;2022-07-12T13:06:11;11.32;;;1.37;;
44987;SDS011;35735;52.226;21.254;2022-07-12T13:11:11;5.10;;;0.93;;
44987;SDS011;35735;52.226;21.254;2022-07-12T13:16:12;4.80;;;1.33;;
44987;SDS011;35735;52.226;21.254;2022-07-12T13:21:12;6.65;;;0.80;;
44987;SDS011;35735;52.226;21.254;2022-07-12T13:26:13;5.25;;;0.80;;
44987;SDS011;35735;52.226;21.254;2022-07-12T13:31:14;3.75;;;0.98;;
44987;SDS011;35735;52.226;21.254;2022-07-12T13:36:14;6.80;;;1.00;;
44987;SDS011;35735;52.226;21.254;2022-07-12T13:41:15;8.98;;;1.20;;
44987;SDS011;35735;52.226;21.254;2022-07-12T13:46:15;8.07;;;1.55;;
44987;SDS011;35735;52.226;21.254;2022-07-12T13:51:16;6.78;;;1.35;;
44987;SDS011;35735;52.226;21.254;2022-07-12T13:56:16;21.62;;;2.05;;
44987;SDS011;35735;52.226;21.254;2022-07-12T14:01:17;6.43;;;1.05;;
44987;SDS011;35735;52.226;21.254;2022-07-12T14:06:18;8.85;;;1.10;;
44987;SDS011;35735;52.226;21.254;2022-07-12T14:11:18;5.72;;;1.50;;
44987;SDS011;35735;52.226;21.254;2022-07-12T14:16:19;6.80;;;1.10;;
44987;SDS011;35735;52.226;21.254;2022-07-12T14:21:19;5.65;;;1.10;;
44987;SDS011;35735;52.226;21.254;2022-07-12T14:26:20;11.55;;;1.10;;
44987;SDS011;35735;52.226;21.254;2022-07-12T14:31:20;5.20;;;1.10;;
44987;SDS011;35735;52.226;21.254;2022-07-12T14:36:21;5.50;;;1.10;;
44987;SDS011;35735;52.226;21.254;2022-07-12T14:41:21;6.00;;;0.95;;
44987;SDS011;35735;52.226;21.254;2022-07-12T14:46:22;6.00;;;1.40;;
44987;SDS011;35735;52.226;21.254;2022-07-12T14:51:22;4.60;;;0.95;;
44987;SDS011;35735;52.226;21.254;2022-07-12T14:56:23;3.78;;;1.05;;
44987;SDS011;35735;52.226;21.254;2022-07-12T15:01:24;1.10;;;0.90;;
44987;SDS011;35735;52.226;21.254;2022-07-12T15:06:24;3.42;;;1.00;;
44987;SDS011;35735;52.226;21.254;2022-07-12T15:11:25;1.62;;;0.80;;
44987;SDS011;35735;52.226;21.254;2022-07-12T15:16:26;4.20;;;1.15;;
44987;SDS011;35735;52.226;21.254;2022-07-12T15:21:26;1.00;;;0.80;;
44987;SDS011;35735;52.226;21.254;2022-07-12T15:26:27;4.30;;;1.00;;
44987;SDS011;35735;52.226;21.254;2022-07-12T15:31:28;2.42;;;0.80;;
44987;SDS011;35735;52.226;21.254;2022-07-12T15:36:30;4.40;;;1.25;;
44987;SDS011;35735;52.226;21.254;2022-07-12T15:41:30;4.10;;;1.05;;
44987;SDS011;35735;52.226;21.254;2022-07-12T15:46:31;2.87;;;1.08;;
44987;SDS011;35735;52.226;21.254;2022-07-12T15:51:31;3.50;;;0.90;;
44987;SDS011;35735;52.226;21.254;2022-07-12T15:56:32;6.57;;;1.30;;
44987;SDS011;35735;52.226;21.254;2022-07-12T16:01:32;2.30;;;1.00;;
44987;SDS011;35735;52.226;21.254;2022-07-12T16:06:34;1.25;;;0.80;;
44987;SDS011;35735;52.226;21.254;2022-07-12T16:11:35;4.22;;;0.90;;
44987;SDS011;35735;52.226;21.254;2022-07-12T16:16:36;1.20;;;0.80;;
44987;SDS011;35735;52.226;21.254;2022-07-12T16:21:36;1.50;;;0.90;;
44987;SDS011;35735;52.226;21.254;2022-07-12T16:26:37;3.40;;;0.80;;
44987;SDS011;35735;52.226;21.254;2022-07-12T16:31:38;3.37;;;0.93;;
44987;SDS011;35735;52.226;21.254;2022-07-12T16:36:38;2.15;;;0.85;;
44987;SDS011;35735;52.226;21.254;2022-07-12T16:41:39;3.58;;;1.02;;
44987;SDS011;35735;52.226;21.254;2022-07-12T16:46:39;2.62;;;0.70;;
44987;SDS011;35735;52.226;21.254;2022-07-12T16:51:40;2.55;;;1.02;;
44987;SDS011;35735;52.226;21.254;2022-07-12T16:56:40;3.45;;;1.10;;
44987;SDS011;35735;52.226;21.254;2022-07-12T17:01:41;1.25;;;0.88;;
44987;SDS011;35735;52.226;21.254;2022-07-12T17:06:41;4.75;;;1.62;;
44987;SDS011;35735;52.226;21.254;2022-07-12T17:11:42;2.80;;;1.45;;
44987;SDS011;35735;52.226;21.254;2022-07-12T17:16:42;4.00;;;1.15;;
44987;SDS011;35735;52.226;21.254;2022-07-12T17:21:46;4.85;;;1.10;;
44987;SDS011;35735;52.226;21.254;2022-07-12T17:26:46;1.95;;;1.00;;
44987;SDS011;35735;52.226;21.254;2022-07-12T17:31:47;4.65;;;1.17;;
44987;SDS011;35735;52.226;21.254;2022-07-12T17:36:47;1.87;;;0.93;;
44987;SDS011;35735;52.226;21.254;2022-07-12T17:41:48;6.40;;;1.10;;
44987;SDS011;35735;52.226;21.254;2022-07-12T17:46:48;4.90;;;1.10;;
44987;SDS011;35735;52.226;21.254;2022-07-12T17:51:49;3.12;;;0.90;;
44987;SDS011;35735;52.226;21.254;2022-07-12T17:56:49;2.72;;;1.00;;
44987;SDS011;35735;52.226;21.254;2022-07-12T18:01:50;6.12;;;1.10;;
44987;SDS011;35735;52.226;21.254;2022-07-12T18:06:50;3.55;;;0.90;;
44987;SDS011;35735;52.226;21.254;2022-07-12T18:11:51;5.55;;;0.93;;
44987;SDS011;35735;52.226;21.254;2022-07-12T18:16:52;6.07;;;1.20;;
44987;SDS011;35735;52.226;21.254;2022-07-12T18:21:52;1.75;;;1.10;;
44987;SDS011;35735;52.226;21.254;2022-07-12T18:26:53;5.55;;;1.42;;
44987;SDS011;35735;52.226;21.254;2022-07-12T18:31:54;2.22;;;1.10;;
44987;SDS011;35735;52.226;21.254;2022-07-12T18:36:54;2.10;;;0.93;;
44987;SDS011;35735;52.226;21.254;2022-07-12T18:41:55;4.12;;;1.20;;
44987;SDS011;35735;52.226;21.254;2022-07-12T18:46:55;2.85;;;1.25;;
44987;SDS011;35735;52.226;21.254;2022-07-12T18:51:56;1.17;;;0.70;;
44987;SDS011;35735;52.226;21.254;2022-07-12T18:56:56;3.30;;;0.90;;
44987;SDS011;35735;52.226;21.254;2022-07-12T19:01:57;4.20;;;0.93;;
44987;SDS011;35735;52.226;21.254;2022-07-12T19:06:57;1.98;;;0.80;;
44987;SDS011;35735;52.226;21.254;2022-07-12T19:12:00;2.60;;;0.70;;
44987;SDS011;35735;52.226;21.254;2022-07-12T19:17:01;3.60;;;0.80;;
44987;SDS011;35735;52.226;21.254;2022-07-12T19:22:02;3.83;;;0.90;;
44987;SDS011;35735;52.226;21.254;2022-07-12T19:27:03;1.17;;;0.90;;
44987;SDS011;35735;52.226;21.254;2022-07-12T19:32:04;2.87;;;0.80;;
44987;SDS011;35735;52.226;21.254;2022-07-12T19:37:04;2.12;;;0.73;;
44987;SDS011;35735;52.226;21.254;2022-07-12T19:42:05;2.67;;;0.62;;
44987;SDS011;35735;52.226;21.254;2022-07-12T19:47:05;6.55;;;1.25;;
44987;SDS011;35735;52.226;21.254;2022-07-12T19:52:06;4.32;;;1.00;;
44987;SDS011;35735;52.226;21.254;2022-07-12T19:57:07;3.37;;;0.60;;
44987;SDS011;35735;52.226;21.254;2022-07-12T20:02:08;4.18;;;0.65;;
44987;SDS011;35735;52.226;21.254;2022-07-12T20:07:09;2.97;;;0.75;;
44987;SDS011;35735;52.226;21.254;2022-07-12T20:12:09;2.75;;;0.80;;
44987;SDS011;35735;52.226;21.254;2022-07-12T20:17:10;2.12;;;0.80;;
44987;SDS011;35735;52.226;21.254;2022-07-12T20:22:11;2.17;;;0.80;;
44987;SDS011;35735;52.226;21.254;2022-07-12T20:27:12;1.95;;;0.65;;
44987;SDS011;35735;52.226;21.254;2022-07-12T20:32:12;5.57;;;1.15;;
44987;SDS011;35735;52.226;21.254;2022-07-12T20:37:13;3.17;;;1.10;;
44987;SDS011;35735;52.226;21.254;2022-07-12T20:42:14;4.25;;;0.80;;
44987;SDS011;35735;52.226;21.254;2022-07-12T20:47:14;2.22;;;0.88;;
44987;SDS011;35735;52.226;21.254;2022-07-12T20:52:15;7.12;;;0.90;;
44987;SDS011;35735;52.226;21.254;2022-07-12T20:57:15;1.23;;;0.80;;
44987;SDS011;35735;52.226;21.254;2022-07-12T21:02:16;3.78;;;1.00;;
44987;SDS011;35735;52.226;21.254;2022-07-12T21:07:16;1.17;;;0.70;;
44987;SDS011;35735;52.226;21.254;2022-07-12T21:12:17;3.00;;;0.95;;
44987;SDS011;35735;52.226;21.254;2022-07-12T21:17:18;4.55;;;0.82;;
44987;SDS011;35735;52.226;21.254;2022-07-12T21:22:18;2.85;;;0.93;;
44987;SDS011;35735;52.226;21.254;2022-07-12T21:27:22;0.95;;;0.80;;
44987;SDS011;35735;52.226;21.254;2022-07-12T21:32:23;1.17;;;0.90;;
44987;SDS011;35735;52.226;21.254;2022-07-12T21:37:24;0.90;;;0.80;;
44987;SDS011;35735;52.226;21.254;2022-07-12T21:42:25;4.15;;;0.80;;
44987;SDS011;35735;52.226;21.254;2022-07-12T21:47:26;1.10;;;0.88;;
44987;SDS011;35735;52.226;21.254;2022-07-12T21:52:27;4.03;;;0.75;;
44987;SDS011;35735;52.226;21.254;2022-07-12T21:57:28;1.87;;;0.80;;
44987;SDS011;35735;52.226;21.254;2022-07-12T22:02:29;3.37;;;0.88;;
44987;SDS011;35735;52.226;21.254;2022-07-12T22:07:30;1.42;;;0.80;;
44987;SDS011;35735;52.226;21.254;2022-07-12T22:12:30;3.20;;;1.00;;
44987;SDS011;35735;52.226;21.254;2022-07-12T22:17:31;3.30;;;1.00;;
44987;SDS011;35735;52.226;21.254;2022-07-12T22:22:32;1.48;;;0.80;;
44987;SDS011;35735;52.226;21.254;2022-07-12T22:27:32;8.15;;;0.90;;
44987;SDS011;35735;52.226;21.254;2022-07-12T22:32:33;4.95;;;1.02;;
44987;SDS011;35735;52.226;21.254;2022-07-12T22:37:33;1.20;;;0.80;;
44987;SDS011;35735;52.226;21.254;2022-07-12T22:42:34;2.37;;;0.95;;
44987;SDS011;35735;52.226;21.254;2022-07-12T22:47:34;2.58;;;0.90;;
44987;SDS011;35735;52.226;21.254;2022-07-12T22:52:35;2.72;;;1.10;;
44987;SDS011;35735;52.226;21.254;2022-07-12T22:57:36;1.37;;;0.90;;
44987;SDS011;35735;52.226;21.254;2022-07-12T23:02:36;2.08;;;0.80;;
44987;SDS011;35735;52.226;21.254;2022-07-12T23:07:37;2.78;;;1.08;;
44987;SDS011;35735;52.226;21.254;2022-07-12T23:12:37;3.30;;;1.05;;
44987;SDS011;35735;52.226;21.254;2022-07-12T23:17:38;4.20;;;1.25;;
44987;SDS011;35735;52.226;21.254;2022-07-12T23:22:38;2.37;;;0.90;;
44987;SDS011;35735;52.226;21.254;2022-07-12T23:27:39;1.77;;;1.00;;
44987;SDS011;35735;52.226;21.254;2022-07-12T23:32:40;2.83;;;0.85;;
44987;SDS011;35735;52.226;21.254;2022-07-12T23:37:41;4.10;;;1.00;;
44987;SDS011;35735;52.226;21.254;2022-07-12T23:42:41;3.75;;;1.10;;
44987;SDS011;35735;52.226;21.254;2022-07-12T23:47:42;1.75;;;0.90;;
44987;SDS011;35735;52.226;21.254;2022-07-12T23:52:42;3.58;;;1.20;;
44987;SDS011;35735;52.226;21.254;2022-07-12T23:57:43;3.40;;;0.90;;
